Sto Camellia — D7LH — position and weather

sailwx.info

Track history (hours):
 
Tides and Currents Weather Stations Pressure Air Temp Water Temp Dewpoint Dewpoint Depression Visibility Wind Speed Wind Dir Waves Ship Positions

Sto Camellia

Last reported at 2017-Jun-22 21:39 UTC. Time now 2017-Jun-26 11:58 UTC.
Position N 36°25' E 125°52'.

Length 121 m; draft 5.2 m.

Type: Ship (hazmat cat C). MMSI: 440036000.

Date/timePositionNaut miles runAvg speedWind from/ knotsBaromVisibWave heightAir tempDewpointWater temp
2017-Jun-22 21:39N 36°25' E 125°52'2313.4
2017-Jun-22 19:56N 36°48' E 125°57'  
2017-Jun-19 13:59N 31°00' E 122°24'813.9
2017-Jun-19 13:24N 31°02' E 122°15'3 8.6
2017-Jun-19 13:00N 31°03' E 122°11'612.6
2017-Jun-19 12:30N 31°04' E 122°04'612.6
2017-Jun-19 12:00N 31°07' E 121°57'611.8
2017-Jun-19 11:31N 31°10' E 121°51'611.3
2017-Jun-19 11:00N 31°14' E 121°47'611.4
2017-Jun-19 10:31N 31°18' E 121°43'611.1
2017-Jun-19 10:01N 31°22' E 121°37'611.0
2017-Jun-19 09:30N 31°25' E 121°32'4 8.6
2017-Jun-19 09:00N 31°27' E 121°28'510.5
2017-Jun-19 08:31N 31°31' E 121°23'5 9.8
2017-Jun-19 08:01N 31°34' E 121°19'510.7
2017-Jun-19 07:31N 31°38' E 121°15'510.6
2017-Jun-19 07:00N 31°41' E 121°10'612.4
2017-Jun-19 06:30N 31°45' E 121°04'3611.2
2017-Jun-19 03:19N 32°02' E 120°27'3 9.8
2017-Jun-19 03:00N 31°59' E 120°27'0 0.3
2017-Jun-19 02:29N 31°58' E 120°27'0 0.0
2017-Jun-18 05:14N 31°58' E 120°27'0 1.7
2017-Jun-18 05:00N 31°58' E 120°26'7 0.3
2017-Jun-17 02:28N 32°04' E 120°31'31 9.8
2017-Jun-16 23:17N 31°47' E 121°01'413.0
2017-Jun-16 23:00N 31°45' E 121°05'713.7
2017-Jun-16 22:30N 31°41' E 121°11'713.7
2017-Jun-16 22:00N 31°36' E 121°17'3 6.3
2017-Jun-16 21:28N 31°35' E 121°21'0 0.0
2017-Jun-16 20:58N 31°35' E 121°21'0 0.0
2017-Jun-16 20:25N 31°35' E 121°21'0 0.0
2017-Jun-16 19:58N 31°35' E 121°21'0 0.0
2017-Jun-16 19:28N 31°35' E 121°21'0 0.0
2017-Jun-16 18:58N 31°35' E 121°21'0 0.2
2017-Jun-16 18:28N 31°35' E 121°21'0 0.1
2017-Jun-16 17:59N 31°35' E 121°21'0 0.0
2017-Jun-16 17:28N 31°35' E 121°21'0 0.1
2017-Jun-16 16:58N 31°35' E 121°21'0 0.1
2017-Jun-16 16:28N 31°35' E 121°21'0 0.0
2017-Jun-16 15:58N 31°35' E 121°21'0 0.0
2017-Jun-16 15:28N 31°35' E 121°21'0 0.0
2017-Jun-16 14:58N 31°35' E 121°21'0 0.0
2017-Jun-16 14:28N 31°35' E 121°21'0 0.0
2017-Jun-16 13:22N 31°35' E 121°21'0 0.0
2017-Jun-16 12:58N 31°35' E 121°21'0 0.0
2017-Jun-16 12:28N 31°35' E 121°21'0 0.1
2017-Jun-16 11:58N 31°35' E 121°21'0 0.2
2017-Jun-16 11:28N 31°35' E 121°21'0 0.1
2017-Jun-16 10:58N 31°35' E 121°21'0 0.0
2017-Jun-16 10:30N 31°35' E 121°21'2 3.0
2017-Jun-16 10:00N 31°33' E 121°21'510.3
2017-Jun-16 09:30N 31°30' E 121°26'510.8
2017-Jun-16 09:00N 31°26' E 121°30'4 8.8
2017-Jun-16 08:30N 31°24' E 121°34'4 8.7
2017-Jun-16 08:00N 31°22' E 121°39'5 9.8
2017-Jun-16 07:30N 31°18' E 121°43'612.6
2017-Jun-16 07:00N 31°14' E 121°48'612.5
2017-Jun-16 06:30N 31°09' E 121°53'611.7
2017-Jun-16 06:00N 31°06' E 121°59'511.0
2017-Jun-16 05:30N 31°04' E 122°05'611.4
2017-Jun-16 05:00N 31°03' E 122°12'5 9.9
2017-Jun-16 04:30N 31°03' E 122°17'5 8.6
2017-Jun-16 03:58N 31°02' E 122°23'4 7.9
2017-Jun-16 03:29N 31°01' E 122°27'5 8.0
2017-Jun-16 02:54N 30°60' E 122°32'6 1.2
2017-Jun-15 21:59N 31°02' E 122°39'4 7.8
2017-Jun-15 21:30N 30°58' E 122°41'612.3
2017-Jun-15 20:59N 30°57' E 122°48'2 4.1
2017-Jun-15 20:26N 30°58' E 122°51'1411.7
2017-Jun-15 19:15N 31°10' E 122°59'412.6
2017-Jun-15 18:58N 31°13' E 123°01'1712.5
2017-Jun-15 17:36N 31°29' E 123°08'112.6
2017-Jun-15 17:30N 31°30' E 123°09'2513.0
2017-Jun-15 15:36N 31°53' E 123°20'613.7
2017-Jun-15 15:08N 31°59' E 123°23'313.9
2017-Jun-15 14:56N 32°02' E 123°24'614.2
2017-Jun-15 14:30N 32°07' E 123°27'1514.5
2017-Jun-15 13:30N 32°21' E 123°34'714.5
2017-Jun-15 13:00N 32°27' E 123°37'714.4
2017-Jun-15 12:30N 32°34' E 123°40'  
Track history (hours):
 
Tides and Currents Weather Stations Pressure Air Temp Water Temp Dewpoint Dewpoint Depression Visibility Wind Speed Wind Dir Waves Ship Positions

Sto Camellia

Last reported at 2017-Jun-22 21:39 UTC. Time now 2017-Jun-26 11:58 UTC.
Position N 36°25' E 125°52'.

Length 121 m; draft 5.2 m.

Type: Ship (hazmat cat C). MMSI: 440036000.

Date/timePositionNaut miles runAvg speedWind from/ knotsBaromVisibWave heightAir tempDewpointWater temp
2017-Jun-22 21:39N 36°25' E 125°52'2313.4
2017-Jun-22 19:56N 36°48' E 125°57'  
2017-Jun-19 13:59N 31°00' E 122°24'813.9
2017-Jun-19 13:24N 31°02' E 122°15'3 8.6
2017-Jun-19 13:00N 31°03' E 122°11'612.6
2017-Jun-19 12:30N 31°04' E 122°04'612.6
2017-Jun-19 12:00N 31°07' E 121°57'611.8
2017-Jun-19 11:31N 31°10' E 121°51'611.3
2017-Jun-19 11:00N 31°14' E 121°47'611.4
2017-Jun-19 10:31N 31°18' E 121°43'611.1
2017-Jun-19 10:01N 31°22' E 121°37'611.0
2017-Jun-19 09:30N 31°25' E 121°32'4 8.6
2017-Jun-19 09:00N 31°27' E 121°28'510.5
2017-Jun-19 08:31N 31°31' E 121°23'5 9.8
2017-Jun-19 08:01N 31°34' E 121°19'510.7
2017-Jun-19 07:31N 31°38' E 121°15'510.6
2017-Jun-19 07:00N 31°41' E 121°10'612.4
2017-Jun-19 06:30N 31°45' E 121°04'3611.2
2017-Jun-19 03:19N 32°02' E 120°27'3 9.8
2017-Jun-19 03:00N 31°59' E 120°27'0 0.3
2017-Jun-19 02:29N 31°58' E 120°27'0 0.0
2017-Jun-18 05:14N 31°58' E 120°27'0 1.7
2017-Jun-18 05:00N 31°58' E 120°26'7 0.3
2017-Jun-17 02:28N 32°04' E 120°31'31 9.8
2017-Jun-16 23:17N 31°47' E 121°01'413.0
2017-Jun-16 23:00N 31°45' E 121°05'713.7
2017-Jun-16 22:30N 31°41' E 121°11'713.7
2017-Jun-16 22:00N 31°36' E 121°17'3 6.3
2017-Jun-16 21:28N 31°35' E 121°21'0 0.0
2017-Jun-16 20:58N 31°35' E 121°21'0 0.0
2017-Jun-16 20:25N 31°35' E 121°21'0 0.0
2017-Jun-16 19:58N 31°35' E 121°21'0 0.0
2017-Jun-16 19:28N 31°35' E 121°21'0 0.0
2017-Jun-16 18:58N 31°35' E 121°21'0 0.2
2017-Jun-16 18:28N 31°35' E 121°21'0 0.1
2017-Jun-16 17:59N 31°35' E 121°21'0 0.0
2017-Jun-16 17:28N 31°35' E 121°21'0 0.1
2017-Jun-16 16:58N 31°35' E 121°21'0 0.1
2017-Jun-16 16:28N 31°35' E 121°21'0 0.0
2017-Jun-16 15:58N 31°35' E 121°21'0 0.0
2017-Jun-16 15:28N 31°35' E 121°21'0 0.0
2017-Jun-16 14:58N 31°35' E 121°21'0 0.0
2017-Jun-16 14:28N 31°35' E 121°21'0 0.0
2017-Jun-16 13:22N 31°35' E 121°21'0 0.0
2017-Jun-16 12:58N 31°35' E 121°21'0 0.0
2017-Jun-16 12:28N 31°35' E 121°21'0 0.1
2017-Jun-16 11:58N 31°35' E 121°21'0 0.2
2017-Jun-16 11:28N 31°35' E 121°21'0 0.1
2017-Jun-16 10:58N 31°35' E 121°21'0 0.0
2017-Jun-16 10:30N 31°35' E 121°21'2 3.0
2017-Jun-16 10:00N 31°33' E 121°21'510.3
2017-Jun-16 09:30N 31°30' E 121°26'510.8
2017-Jun-16 09:00N 31°26' E 121°30'4 8.8
2017-Jun-16 08:30N 31°24' E 121°34'4 8.7
2017-Jun-16 08:00N 31°22' E 121°39'5 9.8
2017-Jun-16 07:30N 31°18' E 121°43'612.6
2017-Jun-16 07:00N 31°14' E 121°48'612.5
2017-Jun-16 06:30N 31°09' E 121°53'611.7
2017-Jun-16 06:00N 31°06' E 121°59'511.0
2017-Jun-16 05:30N 31°04' E 122°05'611.4
2017-Jun-16 05:00N 31°03' E 122°12'5 9.9
2017-Jun-16 04:30N 31°03' E 122°17'5 8.6
2017-Jun-16 03:58N 31°02' E 122°23'4 7.9
2017-Jun-16 03:29N 31°01' E 122°27'5 8.0
2017-Jun-16 02:54N 30°60' E 122°32'6 1.2
2017-Jun-15 21:59N 31°02' E 122°39'4 7.8
2017-Jun-15 21:30N 30°58' E 122°41'612.3
2017-Jun-15 20:59N 30°57' E 122°48'2 4.1
2017-Jun-15 20:26N 30°58' E 122°51'1411.7
2017-Jun-15 19:15N 31°10' E 122°59'412.6
2017-Jun-15 18:58N 31°13' E 123°01'1712.5
2017-Jun-15 17:36N 31°29' E 123°08'112.6
2017-Jun-15 17:30N 31°30' E 123°09'2513.0
2017-Jun-15 15:36N 31°53' E 123°20'613.7
2017-Jun-15 15:08N 31°59' E 123°23'313.9
2017-Jun-15 14:56N 32°02' E 123°24'614.2
2017-Jun-15 14:30N 32°07' E 123°27'1514.5
2017-Jun-15 13:30N 32°21' E 123°34'714.5
2017-Jun-15 13:00N 32°27' E 123°37'714.4
2017-Jun-15 12:30N 32°34' E 123°40'  

Dump ship's entire track history